sensor_id;sensor_type;location;lat;lon;timestamp;temperature;humidity
46217;DHT22;47258;59.424;13.482;2022-07-10T00:00:13;14.40;99.90
46217;DHT22;47258;59.424;13.482;2022-07-10T00:02:44;14.40;99.90
46217;DHT22;47258;59.424;13.482;2022-07-10T00:05:11;14.40;99.90
46217;DHT22;47258;59.424;13.482;2022-07-10T00:07:39;14.40;99.90
46217;DHT22;47258;59.424;13.482;2022-07-10T00:10:06;14.40;99.90
46217;DHT22;47258;59.424;13.482;2022-07-10T00:12:33;14.40;99.90
46217;DHT22;47258;59.424;13.482;2022-07-10T00:15:00;14.40;99.90
46217;DHT22;47258;59.424;13.482;2022-07-10T00:17:27;14.40;99.90
46217;DHT22;47258;59.424;13.482;2022-07-10T00:19:56;14.40;99.90
46217;DHT22;47258;59.424;13.482;2022-07-10T00:22:23;14.30;99.90
46217;DHT22;47258;59.424;13.482;2022-07-10T00:24:50;14.30;99.90
46217;DHT22;47258;59.424;13.482;2022-07-10T00:27:17;14.30;99.90
46217;DHT22;47258;59.424;13.482;2022-07-10T00:29:44;14.20;99.90
46217;DHT22;47258;59.424;13.482;2022-07-10T00:32:12;14.20;99.90
46217;DHT22;47258;59.424;13.482;2022-07-10T00:34:39;14.20;99.90
46217;DHT22;47258;59.424;13.482;2022-07-10T00:37:07;14.10;99.90
46217;DHT22;47258;59.424;13.482;2022-07-10T00:39:34;14.10;99.90
46217;DHT22;47258;59.424;13.482;2022-07-10T00:42:09;14.10;99.90
46217;DHT22;47258;59.424;13.482;2022-07-10T00:44:37;14.10;99.90
46217;DHT22;47258;59.424;13.482;2022-07-10T00:47:06;14.10;99.90
46217;DHT22;47258;59.424;13.482;2022-07-10T00:49:33;14.00;99.90
46217;DHT22;47258;59.424;13.482;2022-07-10T00:52:02;14.00;99.90
46217;DHT22;47258;59.424;13.482;2022-07-10T00:54:32;14.00;99.90
46217;DHT22;47258;59.424;13.482;2022-07-10T00:56:59;14.00;99.90
46217;DHT22;47258;59.424;13.482;2022-07-10T00:59:27;14.00;99.90
46217;DHT22;47258;59.424;13.482;2022-07-10T01:01:55;13.90;99.90
46217;DHT22;47258;59.424;13.482;2022-07-10T01:04:22;13.90;99.90
46217;DHT22;47258;59.424;13.482;2022-07-10T01:06:49;13.90;99.90
46217;DHT22;47258;59.424;13.482;2022-07-10T01:09:16;13.80;99.90
46217;DHT22;47258;59.424;13.482;2022-07-10T01:11:45;13.80;99.90
46217;DHT22;47258;59.424;13.482;2022-07-10T01:14:12;13.80;99.90
46217;DHT22;47258;59.424;13.482;2022-07-10T01:16:41;13.70;99.90
46217;DHT22;47258;59.424;13.482;2022-07-10T01:19:08;13.70;99.90
46217;DHT22;47258;59.424;13.482;2022-07-10T01:21:37;13.70;99.90
46217;DHT22;47258;59.424;13.482;2022-07-10T01:24:06;13.70;99.90
46217;DHT22;47258;59.424;13.482;2022-07-10T01:26:34;13.70;99.90
46217;DHT22;47258;59.424;13.482;2022-07-10T01:29:04;13.60;99.90
46217;DHT22;47258;59.424;13.482;2022-07-10T01:31:31;13.60;99.90
46217;DHT22;47258;59.424;13.482;2022-07-10T01:33:59;13.60;99.90
46217;DHT22;47258;59.424;13.482;2022-07-10T01:36:28;13.60;99.90
46217;DHT22;47258;59.424;13.482;2022-07-10T01:38:58;13.60;99.90
46217;DHT22;47258;59.424;13.482;2022-07-10T01:41:26;13.60;99.90
46217;DHT22;47258;59.424;13.482;2022-07-10T01:43:53;13.50;99.90
46217;DHT22;47258;59.424;13.482;2022-07-10T01:46:20;13.50;99.90
46217;DHT22;47258;59.424;13.482;2022-07-10T01:48:48;13.40;99.90
46217;DHT22;47258;59.424;13.482;2022-07-10T01:51:15;13.40;99.90
46217;DHT22;47258;59.424;13.482;2022-07-10T01:53:42;13.40;99.90
46217;DHT22;47258;59.424;13.482;2022-07-10T01:56:12;13.30;99.90
46217;DHT22;47258;59.424;13.482;2022-07-10T01:58:39;13.40;99.90
46217;DHT22;47258;59.424;13.482;2022-07-10T02:01:08;13.30;99.90
46217;DHT22;47258;59.424;13.482;2022-07-10T02:03:35;13.30;99.90
46217;DHT22;47258;59.424;13.482;2022-07-10T02:06:20;13.30;99.90
46217;DHT22;47258;59.424;13.482;2022-07-10T02:08:47;13.30;99.90
46217;DHT22;47258;59.424;13.482;2022-07-10T02:11:15;13.30;99.90
46217;DHT22;47258;59.424;13.482;2022-07-10T02:13:42;13.30;99.90
46217;DHT22;47258;59.424;13.482;2022-07-10T02:16:09;13.30;99.90
46217;DHT22;47258;59.424;13.482;2022-07-10T02:18:37;13.30;99.90
46217;DHT22;47258;59.424;13.482;2022-07-10T02:21:05;13.30;99.90
46217;DHT22;47258;59.424;13.482;2022-07-10T02:23:32;13.30;99.90
46217;DHT22;47258;59.424;13.482;2022-07-10T02:25:59;13.30;99.90
46217;DHT22;47258;59.424;13.482;2022-07-10T02:28:28;13.30;99.90
46217;DHT22;47258;59.424;13.482;2022-07-10T02:30:55;13.30;99.90
46217;DHT22;47258;59.424;13.482;2022-07-10T02:33:21;13.30;99.90
46217;DHT22;47258;59.424;13.482;2022-07-10T02:35:48;13.30;99.90
46217;DHT22;47258;59.424;13.482;2022-07-10T02:38:15;13.30;99.90
46217;DHT22;47258;59.424;13.482;2022-07-10T02:40:42;13.20;99.90
46217;DHT22;47258;59.424;13.482;2022-07-10T02:43:09;13.20;99.90
46217;DHT22;47258;59.424;13.482;2022-07-10T02:45:38;13.20;99.90
46217;DHT22;47258;59.424;13.482;2022-07-10T02:48:05;13.20;99.90
46217;DHT22;47258;59.424;13.482;2022-07-10T02:50:32;13.20;99.90
46217;DHT22;47258;59.424;13.482;2022-07-10T02:52:59;13.20;99.90
46217;DHT22;47258;59.424;13.482;2022-07-10T02:55:26;13.10;99.90
46217;DHT22;47258;59.424;13.482;2022-07-10T02:57:53;13.10;99.90
46217;DHT22;47258;59.424;13.482;2022-07-10T03:00:20;13.10;99.90
46217;DHT22;47258;59.424;13.482;2022-07-10T03:02:49;13.10;99.90
46217;DHT22;47258;59.424;13.482;2022-07-10T03:05:16;13.10;99.90
46217;DHT22;47258;59.424;13.482;2022-07-10T03:07:43;13.20;99.90
46217;DHT22;47258;59.424;13.482;2022-07-10T03:10:10;13.20;99.90
46217;DHT22;47258;59.424;13.482;2022-07-10T03:12:37;13.20;99.90
46217;DHT22;47258;59.424;13.482;2022-07-10T03:15:05;13.20;99.90
46217;DHT22;47258;59.424;13.482;2022-07-10T03:17:32;13.20;99.90
46217;DHT22;47258;59.424;13.482;2022-07-10T03:20:01;13.20;99.90
46217;DHT22;47258;59.424;13.482;2022-07-10T03:22:28;13.30;99.90
46217;DHT22;47258;59.424;13.482;2022-07-10T03:24:56;13.20;99.90
46217;DHT22;47258;59.424;13.482;2022-07-10T03:27:23;13.20;99.90
46217;DHT22;47258;59.424;13.482;2022-07-10T03:29:50;13.30;99.90
46217;DHT22;47258;59.424;13.482;2022-07-10T03:32:17;13.40;99.90
46217;DHT22;47258;59.424;13.482;2022-07-10T03:34:44;13.40;99.90
46217;DHT22;47258;59.424;13.482;2022-07-10T03:37:12;13.50;99.90
46217;DHT22;47258;59.424;13.482;2022-07-10T03:39:39;13.60;99.90
46217;DHT22;47258;59.424;13.482;2022-07-10T03:42:06;13.60;99.90
46217;DHT22;47258;59.424;13.482;2022-07-10T03:44:33;13.60;99.90
46217;DHT22;47258;59.424;13.482;2022-07-10T03:47:00;13.60;99.90
46217;DHT22;47258;59.424;13.482;2022-07-10T03:49:27;13.70;99.90
46217;DHT22;47258;59.424;13.482;2022-07-10T03:51:54;13.90;99.90
46217;DHT22;47258;59.424;13.482;2022-07-10T03:54:22;14.50;99.90
46217;DHT22;47258;59.424;13.482;2022-07-10T03:56:49;15.00;99.90
46217;DHT22;47258;59.424;13.482;2022-07-10T03:59:34;15.10;99.90
46217;DHT22;47258;59.424;13.482;2022-07-10T04:02:01;15.10;99.90
46217;DHT22;47258;59.424;13.482;2022-07-10T04:04:28;15.10;99.90
46217;DHT22;47258;59.424;13.482;2022-07-10T04:06:55;15.30;99.90
46217;DHT22;47258;59.424;13.482;2022-07-10T04:09:23;15.30;99.90
46217;DHT22;47258;59.424;13.482;2022-07-10T04:11:50;15.30;99.90
46217;DHT22;47258;59.424;13.482;2022-07-10T04:14:17;15.00;99.90
46217;DHT22;47258;59.424;13.482;2022-07-10T04:16:44;14.80;99.90
46217;DHT22;47258;59.424;13.482;2022-07-10T04:19:11;14.60;99.90
46217;DHT22;47258;59.424;13.482;2022-07-10T04:21:38;14.40;99.90
46217;DHT22;47258;59.424;13.482;2022-07-10T04:24:05;14.30;99.90
46217;DHT22;47258;59.424;13.482;2022-07-10T04:26:34;14.20;99.90
46217;DHT22;47258;59.424;13.482;2022-07-10T04:29:01;14.20;99.90
46217;DHT22;47258;59.424;13.482;2022-07-10T04:31:27;14.30;99.90
46217;DHT22;47258;59.424;13.482;2022-07-10T04:33:54;14.30;99.90
46217;DHT22;47258;59.424;13.482;2022-07-10T04:36:23;14.30;99.90
46217;DHT22;47258;59.424;13.482;2022-07-10T04:38:50;14.30;99.90
46217;DHT22;47258;59.424;13.482;2022-07-10T04:41:17;14.20;99.90
46217;DHT22;47258;59.424;13.482;2022-07-10T04:43:45;14.30;99.90
46217;DHT22;47258;59.424;13.482;2022-07-10T04:46:12;14.30;99.90
46217;DHT22;47258;59.424;13.482;2022-07-10T04:48:39;14.40;99.90
46217;DHT22;47258;59.424;13.482;2022-07-10T04:51:06;14.60;99.90
46217;DHT22;47258;59.424;13.482;2022-07-10T04:53:34;14.70;99.90
46217;DHT22;47258;59.424;13.482;2022-07-10T04:56:01;14.70;99.90
46217;DHT22;47258;59.424;13.482;2022-07-10T04:58:28;14.90;99.90
46217;DHT22;47258;59.424;13.482;2022-07-10T05:00:56;15.50;99.90
46217;DHT22;47258;59.424;13.482;2022-07-10T05:03:23;16.30;99.90
46217;DHT22;47258;59.424;13.482;2022-07-10T05:05:50;17.20;99.90
46217;DHT22;47258;59.424;13.482;2022-07-10T05:08:17;18.00;99.90
46217;DHT22;47258;59.424;13.482;2022-07-10T05:10:44;18.60;99.90
46217;DHT22;47258;59.424;13.482;2022-07-10T05:13:11;18.90;99.00
46217;DHT22;47258;59.424;13.482;2022-07-10T05:15:39;19.30;98.40
46217;DHT22;47258;59.424;13.482;2022-07-10T05:18:07;20.00;97.30
46217;DHT22;47258;59.424;13.482;2022-07-10T05:20:34;21.00;96.40
46217;DHT22;47258;59.424;13.482;2022-07-10T05:23:03;21.90;93.90
46217;DHT22;47258;59.424;13.482;2022-07-10T05:25:30;22.40;93.00
46217;DHT22;47258;59.424;13.482;2022-07-10T05:27:58;22.90;91.90
46217;DHT22;47258;59.424;13.482;2022-07-10T05:30:25;23.50;90.80
46217;DHT22;47258;59.424;13.482;2022-07-10T05:32:52;24.10;88.40
46217;DHT22;47258;59.424;13.482;2022-07-10T05:35:20;24.50;85.70
46217;DHT22;47258;59.424;13.482;2022-07-10T05:37:47;24.20;85.20
46217;DHT22;47258;59.424;13.482;2022-07-10T05:40:14;23.50;85.50
46217;DHT22;47258;59.424;13.482;2022-07-10T05:42:41;22.80;87.50
46217;DHT22;47258;59.424;13.482;2022-07-10T05:45:10;21.90;87.20
46217;DHT22;47258;59.424;13.482;2022-07-10T05:47:37;21.10;90.10
46217;DHT22;47258;59.424;13.482;2022-07-10T05:50:04;20.90;90.50
46217;DHT22;47258;59.424;13.482;2022-07-10T05:52:33;20.80;90.90
46217;DHT22;47258;59.424;13.482;2022-07-10T05:55:00;20.50;89.60
46217;DHT22;47258;59.424;13.482;2022-07-10T05:57:29;20.20;90.20
46217;DHT22;47258;59.424;13.482;2022-07-10T05:59:56;19.90;91.20
46217;DHT22;47258;59.424;13.482;2022-07-10T06:02:23;19.70;91.80
46217;DHT22;47258;59.424;13.482;2022-07-10T06:04:50;19.70;92.00
46217;DHT22;47258;59.424;13.482;2022-07-10T06:07:17;19.70;92.20
46217;DHT22;47258;59.424;13.482;2022-07-10T06:09:46;19.70;91.40
46217;DHT22;47258;59.424;13.482;2022-07-10T06:12:13;19.90;92.20
46217;DHT22;47258;59.424;13.482;2022-07-10T06:14:41;20.10;92.10
46217;DHT22;47258;59.424;13.482;2022-07-10T06:17:08;20.60;90.90
46217;DHT22;47258;59.424;13.482;2022-07-10T06:19:35;21.10;90.60
46217;DHT22;47258;59.424;13.482;2022-07-10T06:22:02;21.90;88.80
46217;DHT22;47258;59.424;13.482;2022-07-10T06:24:48;22.90;87.40
46217;DHT22;47258;59.424;13.482;2022-07-10T06:27:15;23.80;80.80
46217;DHT22;47258;59.424;13.482;2022-07-10T06:29:43;24.50;80.20
46217;DHT22;47258;59.424;13.482;2022-07-10T06:32:10;25.50;78.70
46217;DHT22;47258;59.424;13.482;2022-07-10T06:34:37;26.90;76.10
46217;DHT22;47258;59.424;13.482;2022-07-10T06:37:05;27.60;70.50
46217;DHT22;47258;59.424;13.482;2022-07-10T06:39:33;27.60;68.20
46217;DHT22;47258;59.424;13.482;2022-07-10T06:42:03;28.20;65.80
46217;DHT22;47258;59.424;13.482;2022-07-10T06:44:31;27.90;64.40
46217;DHT22;47258;59.424;13.482;2022-07-10T06:46:58;27.10;65.10
46217;DHT22;47258;59.424;13.482;2022-07-10T06:49:43;26.40;66.30
46217;DHT22;47258;59.424;13.482;2022-07-10T06:52:11;27.10;63.70
46217;DHT22;47258;59.424;13.482;2022-07-10T06:54:39;27.20;64.20
46217;DHT22;47258;59.424;13.482;2022-07-10T06:57:07;26.70;65.70
46217;DHT22;47258;59.424;13.482;2022-07-10T06:59:34;27.40;64.30
46217;DHT22;47258;59.424;13.482;2022-07-10T07:02:02;27.20;63.20
46217;DHT22;47258;59.424;13.482;2022-07-10T07:04:29;27.60;62.50
46217;DHT22;47258;59.424;13.482;2022-07-10T07:06:55;28.00;63.50
46217;DHT22;47258;59.424;13.482;2022-07-10T07:09:22;29.20;61.30
46217;DHT22;47258;59.424;13.482;2022-07-10T07:11:49;30.10;60.50
46217;DHT22;47258;59.424;13.482;2022-07-10T07:14:18;30.80;56.30
46217;DHT22;47258;59.424;13.482;2022-07-10T07:16:45;31.10;55.80
46217;DHT22;47258;59.424;13.482;2022-07-10T07:19:22;30.60;56.40
46217;DHT22;47258;59.424;13.482;2022-07-10T07:21:56;29.90;56.90
46217;DHT22;47258;59.424;13.482;2022-07-10T07:24:41;28.90;58.20
46217;DHT22;47258;59.424;13.482;2022-07-10T07:27:08;27.70;58.70
46217;DHT22;47258;59.424;13.482;2022-07-10T07:29:37;26.50;59.50
46217;DHT22;47258;59.424;13.482;2022-07-10T07:32:04;25.40;63.00
46217;DHT22;47258;59.424;13.482;2022-07-10T07:34:31;25.00;65.00
46217;DHT22;47258;59.424;13.482;2022-07-10T07:36:58;25.10;67.20
46217;DHT22;47258;59.424;13.482;2022-07-10T07:39:25;26.50;66.20
46217;DHT22;47258;59.424;13.482;2022-07-10T07:41:52;27.80;62.30
46217;DHT22;47258;59.424;13.482;2022-07-10T07:44:19;27.70;60.10
46217;DHT22;47258;59.424;13.482;2022-07-10T07:46:47;27.90;61.20
46217;DHT22;47258;59.424;13.482;2022-07-10T07:49:14;27.80;59.90
46217;DHT22;47258;59.424;13.482;2022-07-10T07:51:41;27.40;60.40
46217;DHT22;47258;59.424;13.482;2022-07-10T07:54:08;26.30;62.50
46217;DHT22;47258;59.424;13.482;2022-07-10T07:56:35;25.50;63.10
46217;DHT22;47258;59.424;13.482;2022-07-10T07:59:02;25.00;64.10
46217;DHT22;47258;59.424;13.482;2022-07-10T08:01:29;24.90;66.90
46217;DHT22;47258;59.424;13.482;2022-07-10T08:03:58;25.70;65.60
46217;DHT22;47258;59.424;13.482;2022-07-10T08:06:25;26.00;63.50
46217;DHT22;47258;59.424;13.482;2022-07-10T08:08:52;25.60;63.60
46217;DHT22;47258;59.424;13.482;2022-07-10T08:11:19;24.70;66.40
46217;DHT22;47258;59.424;13.482;2022-07-10T08:13:46;24.10;67.30
46217;DHT22;47258;59.424;13.482;2022-07-10T08:16:12;23.70;67.90
46217;DHT22;47258;59.424;13.482;2022-07-10T08:18:40;23.20;66.50
46217;DHT22;47258;59.424;13.482;2022-07-10T08:21:08;22.70;67.20
46217;DHT22;47258;59.424;13.482;2022-07-10T08:23:35;22.30;68.70
46217;DHT22;47258;59.424;13.482;2022-07-10T08:26:02;22.10;71.00
46217;DHT22;47258;59.424;13.482;2022-07-10T08:28:29;21.70;73.90
46217;DHT22;47258;59.424;13.482;2022-07-10T08:30:56;21.50;74.60
46217;DHT22;47258;59.424;13.482;2022-07-10T08:33:23;21.40;75.10
46217;DHT22;47258;59.424;13.482;2022-07-10T08:35:50;21.40;75.50
46217;DHT22;47258;59.424;13.482;2022-07-10T08:38:18;21.50;77.50
46217;DHT22;47258;59.424;13.482;2022-07-10T08:40:46;21.30;76.60
46217;DHT22;47258;59.424;13.482;2022-07-10T08:43:13;21.30;75.60
46217;DHT22;47258;59.424;13.482;2022-07-10T08:45:40;21.20;75.50
46217;DHT22;47258;59.424;13.482;2022-07-10T08:48:07;21.40;79.40
46217;DHT22;47258;59.424;13.482;2022-07-10T08:50:38;21.50;77.20
46217;DHT22;47258;59.424;13.482;2022-07-10T08:53:12;21.70;76.70
46217;DHT22;47258;59.424;13.482;2022-07-10T08:55:40;21.80;76.80
46217;DHT22;47258;59.424;13.482;2022-07-10T08:58:08;21.80;76.20
46217;DHT22;47258;59.424;13.482;2022-07-10T09:00:35;21.60;76.60
46217;DHT22;47258;59.424;13.482;2022-07-10T09:03:03;21.50;76.30
46217;DHT22;47258;59.424;13.482;2022-07-10T09:05:29;21.50;75.20
46217;DHT22;47258;59.424;13.482;2022-07-10T09:07:56;21.60;75.80
46217;DHT22;47258;59.424;13.482;2022-07-10T09:10:25;21.80;74.70
46217;DHT22;47258;59.424;13.482;2022-07-10T09:12:55;21.90;76.00
46217;DHT22;47258;59.424;13.482;2022-07-10T09:15:24;22.10;77.40
46217;DHT22;47258;59.424;13.482;2022-07-10T09:17:55;22.10;75.10
46217;DHT22;47258;59.424;13.482;2022-07-10T09:20:26;22.10;74.40
46217;DHT22;47258;59.424;13.482;2022-07-10T09:22:55;22.10;73.60
46217;DHT22;47258;59.424;13.482;2022-07-10T09:25:31;22.10;75.80
46217;DHT22;47258;59.424;13.482;2022-07-10T09:28:01;22.20;74.30
46217;DHT22;47258;59.424;13.482;2022-07-10T09:30:32;22.20;73.40
46217;DHT22;47258;59.424;13.482;2022-07-10T09:33:15;22.10;74.10
46217;DHT22;47258;59.424;13.482;2022-07-10T09:35:59;22.10;75.00
46217;DHT22;47258;59.424;13.482;2022-07-10T09:38:56;21.90;75.40
46217;DHT22;47258;59.424;13.482;2022-07-10T09:41:27;21.70;76.00
46217;DHT22;47258;59.424;13.482;2022-07-10T09:43:57;21.70;76.10
46217;DHT22;47258;59.424;13.482;2022-07-10T09:46:26;21.70;75.40
46217;DHT22;47258;59.424;13.482;2022-07-10T09:49:01;21.90;74.10
46217;DHT22;47258;59.424;13.482;2022-07-10T09:51:30;22.10;76.50
46217;DHT22;47258;59.424;13.482;2022-07-10T09:53:59;22.10;75.10
46217;DHT22;47258;59.424;13.482;2022-07-10T09:56:26;22.10;75.80
46217;DHT22;47258;59.424;13.482;2022-07-10T09:58:59;22.10;75.80
46217;DHT22;47258;59.424;13.482;2022-07-10T10:01:28;22.20;74.40
46217;DHT22;47258;59.424;13.482;2022-07-10T10:03:58;22.30;73.50
46217;DHT22;47258;59.424;13.482;2022-07-10T10:06:30;22.20;72.90
46217;DHT22;47258;59.424;13.482;2022-07-10T10:09:02;21.90;72.50
46217;DHT22;47258;59.424;13.482;2022-07-10T10:11:33;21.80;73.90
46217;DHT22;47258;59.424;13.482;2022-07-10T10:14:07;21.70;74.70
46217;DHT22;47258;59.424;13.482;2022-07-10T10:16:35;21.70;76.50
46217;DHT22;47258;59.424;13.482;2022-07-10T10:19:03;21.60;76.30
46217;DHT22;47258;59.424;13.482;2022-07-10T10:21:47;21.60;77.30
46217;DHT22;47258;59.424;13.482;2022-07-10T10:24:15;21.60;77.10
46217;DHT22;47258;59.424;13.482;2022-07-10T10:26:43;21.40;75.40
46217;DHT22;47258;59.424;13.482;2022-07-10T10:29:12;21.40;76.60
46217;DHT22;47258;59.424;13.482;2022-07-10T10:31:40;21.40;78.50
46217;DHT22;47258;59.424;13.482;2022-07-10T10:34:08;21.40;79.00
46217;DHT22;47258;59.424;13.482;2022-07-10T10:36:46;21.40;78.20
46217;DHT22;47258;59.424;13.482;2022-07-10T10:39:17;21.30;77.10
46217;DHT22;47258;59.424;13.482;2022-07-10T10:41:51;21.30;77.00
46217;DHT22;47258;59.424;13.482;2022-07-10T10:44:29;21.20;77.00
46217;DHT22;47258;59.424;13.482;2022-07-10T10:46:59;21.20;78.50
46217;DHT22;47258;59.424;13.482;2022-07-10T10:49:51;21.10;78.50
46217;DHT22;47258;59.424;13.482;2022-07-10T10:52:18;20.90;79.50
46217;DHT22;47258;59.424;13.482;2022-07-10T10:55:06;20.90;79.60
46217;DHT22;47258;59.424;13.482;2022-07-10T10:57:39;20.80;79.10
46217;DHT22;47258;59.424;13.482;2022-07-10T11:00:14;20.70;80.00
46217;DHT22;47258;59.424;13.482;2022-07-10T11:02:42;20.70;81.20
46217;DHT22;47258;59.424;13.482;2022-07-10T11:05:41;20.80;81.50
46217;DHT22;47258;59.424;13.482;2022-07-10T11:08:08;20.80;78.80
46217;DHT22;47258;59.424;13.482;2022-07-10T11:10:37;20.70;80.40
46217;DHT22;47258;59.424;13.482;2022-07-10T11:13:06;20.70;81.00
46217;DHT22;47258;59.424;13.482;2022-07-10T11:15:36;20.70;82.60
46217;DHT22;47258;59.424;13.482;2022-07-10T11:18:06;20.80;80.60
46217;DHT22;47258;59.424;13.482;2022-07-10T11:20:34;20.80;80.10
46217;DHT22;47258;59.424;13.482;2022-07-10T11:23:12;20.80;80.40
46217;DHT22;47258;59.424;13.482;2022-07-10T11:25:49;20.70;81.80
46217;DHT22;47258;59.424;13.482;2022-07-10T11:28:36;20.60;81.80
46217;DHT22;47258;59.424;13.482;2022-07-10T11:31:07;20.60;82.50
46217;DHT22;47258;59.424;13.482;2022-07-10T11:33:39;20.50;80.80
46217;DHT22;47258;59.424;13.482;2022-07-10T11:36:11;20.30;81.50
46217;DHT22;47258;59.424;13.482;2022-07-10T11:38:39;20.30;81.90
46217;DHT22;47258;59.424;13.482;2022-07-10T11:41:13;20.30;81.10
46217;DHT22;47258;59.424;13.482;2022-07-10T11:43:46;20.30;82.90
46217;DHT22;47258;59.424;13.482;2022-07-10T11:46:15;20.40;82.60
46217;DHT22;47258;59.424;13.482;2022-07-10T11:48:42;20.40;83.10
46217;DHT22;47258;59.424;13.482;2022-07-10T11:51:22;20.50;83.80
46217;DHT22;47258;59.424;13.482;2022-07-10T11:54:01;20.60;84.40
46217;DHT22;47258;59.424;13.482;2022-07-10T11:56:30;20.50;83.20
46217;DHT22;47258;59.424;13.482;2022-07-10T11:59:00;20.50;85.00
46217;DHT22;47258;59.424;13.482;2022-07-10T12:01:31;20.40;86.90
46217;DHT22;47258;59.424;13.482;2022-07-10T12:04:00;20.20;89.60
46217;DHT22;47258;59.424;13.482;2022-07-10T12:06:28;20.10;90.30
46217;DHT22;47258;59.424;13.482;2022-07-10T12:08:56;20.00;90.70
46217;DHT22;47258;59.424;13.482;2022-07-10T12:11:23;20.00;90.80
46217;DHT22;47258;59.424;13.482;2022-07-10T12:13:51;20.00;91.90
46217;DHT22;47258;59.424;13.482;2022-07-10T12:16:20;20.10;91.50
46217;DHT22;47258;59.424;13.482;2022-07-10T12:18:49;20.10;92.30
46217;DHT22;47258;59.424;13.482;2022-07-10T12:21:16;20.10;91.40
46217;DHT22;47258;59.424;13.482;2022-07-10T12:23:44;20.10;90.90
46217;DHT22;47258;59.424;13.482;2022-07-10T12:26:12;20.10;91.80
46217;DHT22;47258;59.424;13.482;2022-07-10T12:28:51;20.10;91.10
46217;DHT22;47258;59.424;13.482;2022-07-10T12:31:23;20.10;91.00
46217;DHT22;47258;59.424;13.482;2022-07-10T12:33:53;20.20;91.50
46217;DHT22;47258;59.424;13.482;2022-07-10T12:36:23;20.20;91.00
46217;DHT22;47258;59.424;13.482;2022-07-10T12:38:55;20.30;91.40
46217;DHT22;47258;59.424;13.482;2022-07-10T12:41:24;20.40;91.00
46217;DHT22;47258;59.424;13.482;2022-07-10T12:43:52;20.50;91.20
46217;DHT22;47258;59.424;13.482;2022-07-10T12:46:20;20.50;91.30
46217;DHT22;47258;59.424;13.482;2022-07-10T12:49:05;20.50;91.10
46217;DHT22;47258;59.424;13.482;2022-07-10T12:51:34;20.30;92.00
46217;DHT22;47258;59.424;13.482;2022-07-10T12:54:01;20.20;92.30
46217;DHT22;47258;59.424;13.482;2022-07-10T12:56:32;20.10;91.10
46217;DHT22;47258;59.424;13.482;2022-07-10T12:59:01;20.10;91.80
46217;DHT22;47258;59.424;13.482;2022-07-10T13:01:28;20.00;92.40
46217;DHT22;47258;59.424;13.482;2022-07-10T13:04:00;20.10;92.00
46217;DHT22;47258;59.424;13.482;2022-07-10T13:06:33;20.00;91.30
46217;DHT22;47258;59.424;13.482;2022-07-10T13:09:01;20.00;91.30
46217;DHT22;47258;59.424;13.482;2022-07-10T13:11:28;20.00;90.90
46217;DHT22;47258;59.424;13.482;2022-07-10T13:13:55;20.00;90.40
46217;DHT22;47258;59.424;13.482;2022-07-10T13:16:23;19.90;90.10
46217;DHT22;47258;59.424;13.482;2022-07-10T13:18:50;19.90;90.10
46217;DHT22;47258;59.424;13.482;2022-07-10T13:21:17;19.90;90.00
46217;DHT22;47258;59.424;13.482;2022-07-10T13:23:45;20.00;90.40
46217;DHT22;47258;59.424;13.482;2022-07-10T13:26:13;20.10;91.00
46217;DHT22;47258;59.424;13.482;2022-07-10T13:28:40;20.30;90.90
46217;DHT22;47258;59.424;13.482;2022-07-10T13:31:08;20.50;90.70
46217;DHT22;47258;59.424;13.482;2022-07-10T13:33:35;20.60;89.90
46217;DHT22;47258;59.424;13.482;2022-07-10T13:36:02;20.70;89.40
46217;DHT22;47258;59.424;13.482;2022-07-10T13:38:30;20.60;88.40
46217;DHT22;47258;59.424;13.482;2022-07-10T13:40:59;20.60;89.10
46217;DHT22;47258;59.424;13.482;2022-07-10T13:43:26;20.60;89.30
46217;DHT22;47258;59.424;13.482;2022-07-10T13:45:57;20.70;89.50
46217;DHT22;47258;59.424;13.482;2022-07-10T13:48:24;20.80;90.00
46217;DHT22;47258;59.424;13.482;2022-07-10T13:50:51;20.90;89.90
46217;DHT22;47258;59.424;13.482;2022-07-10T13:53:19;21.00;88.70
46217;DHT22;47258;59.424;13.482;2022-07-10T13:55:47;21.10;87.70
46217;DHT22;47258;59.424;13.482;2022-07-10T13:58:15;21.10;84.80
46217;DHT22;47258;59.424;13.482;2022-07-10T14:00:43;21.00;83.80
46217;DHT22;47258;59.424;13.482;2022-07-10T14:03:10;20.90;84.70
46217;DHT22;47258;59.424;13.482;2022-07-10T14:05:37;21.00;84.20
46217;DHT22;47258;59.424;13.482;2022-07-10T14:08:04;20.90;85.40
46217;DHT22;47258;59.424;13.482;2022-07-10T14:10:31;20.90;84.20
46217;DHT22;47258;59.424;13.482;2022-07-10T14:12:58;20.90;84.20
46217;DHT22;47258;59.424;13.482;2022-07-10T14:15:27;20.80;85.70
46217;DHT22;47258;59.424;13.482;2022-07-10T14:17:54;20.90;86.30
46217;DHT22;47258;59.424;13.482;2022-07-10T14:20:21;20.80;86.20
46217;DHT22;47258;59.424;13.482;2022-07-10T14:22:48;20.60;85.20
46217;DHT22;47258;59.424;13.482;2022-07-10T14:25:15;20.60;87.00
46217;DHT22;47258;59.424;13.482;2022-07-10T14:27:42;20.50;86.70
46217;DHT22;47258;59.424;13.482;2022-07-10T14:30:10;20.40;86.90
46217;DHT22;47258;59.424;13.482;2022-07-10T14:32:38;20.50;87.70
46217;DHT22;47258;59.424;13.482;2022-07-10T14:35:06;20.50;86.40
46217;DHT22;47258;59.424;13.482;2022-07-10T14:37:34;20.40;86.10
46217;DHT22;47258;59.424;13.482;2022-07-10T14:40:01;20.40;86.70
46217;DHT22;47258;59.424;13.482;2022-07-10T14:42:28;20.50;87.80
46217;DHT22;47258;59.424;13.482;2022-07-10T14:44:56;20.50;88.70
46217;DHT22;47258;59.424;13.482;2022-07-10T14:47:23;20.50;88.20
46217;DHT22;47258;59.424;13.482;2022-07-10T14:49:52;20.50;88.00
46217;DHT22;47258;59.424;13.482;2022-07-10T14:52:19;20.60;87.90
46217;DHT22;47258;59.424;13.482;2022-07-10T14:54:47;20.50;88.10
46217;DHT22;47258;59.424;13.482;2022-07-10T14:57:15;20.50;87.10
46217;DHT22;47258;59.424;13.482;2022-07-10T14:59:42;20.40;88.20
46217;DHT22;47258;59.424;13.482;2022-07-10T15:02:09;20.30;88.10
46217;DHT22;47258;59.424;13.482;2022-07-10T15:04:36;20.20;88.70
46217;DHT22;47258;59.424;13.482;2022-07-10T15:07:05;20.20;87.70
46217;DHT22;47258;59.424;13.482;2022-07-10T15:09:32;20.20;88.50
46217;DHT22;47258;59.424;13.482;2022-07-10T15:11:59;20.20;88.20
46217;DHT22;47258;59.424;13.482;2022-07-10T15:14:26;20.10;89.50
46217;DHT22;47258;59.424;13.482;2022-07-10T15:16:54;20.10;87.80
46217;DHT22;47258;59.424;13.482;2022-07-10T15:19:21;20.10;87.80
46217;DHT22;47258;59.424;13.482;2022-07-10T15:21:48;20.10;87.10
46217;DHT22;47258;59.424;13.482;2022-07-10T15:24:17;19.90;86.40